BAW9VR EHAM-EDDH
Flight info
| Callsign | BAW9VR |
|---|---|
| Flight time | 0h 44m |
| Altitude | 29000 |
| Route | ANDIK M105 RIBSO RIBSO3D |
| Aircraft | A321/M-SDE3FGHIRWY/LB1 |
Departure
| Time | 2026-04-18 11:03 |
|---|---|
| Airport | Amsterdam Airport Schiphol (EHAM) |
Arrival
| Time | 2026-04-18 11:48 |
|---|---|
| Airport | Hamburg Helmut Schmidt Airport (EDDH) |
| Time | Latitude | Longitude | Altitude | Speed | Heading |
|---|---|---|---|---|---|
| 2026-04-18 10:44 | 52.30713 | 4.77089 | -1 ft | 0 kts | 3° |
| 2026-04-18 10:45 | 52.30710 | 4.77155 | -1 ft | 0 kts | 3° |
| 2026-04-18 10:56 | 52.30694 | 4.77154 | -1 ft | 4 kts | 21° |
| 2026-04-18 10:56 | 52.30674 | 4.77142 | -1 ft | 4 kts | 328° |
| 2026-04-18 10:56 | 52.30659 | 4.77166 | -1 ft | 4 kts | 300° |
| 2026-04-18 10:56 | 52.30655 | 4.77177 | -1 ft | 0 kts | 302° |
| 2026-04-18 10:59 | 52.30657 | 4.77173 | -1 ft | 1 kts | 301° |
| 2026-04-18 10:59 | 52.30660 | 4.77145 | -1 ft | 4 kts | 273° |
| 2026-04-18 10:59 | 52.30644 | 4.77071 | -1 ft | 10 kts | 232° |
| 2026-04-18 10:59 | 52.30577 | 4.77060 | -1 ft | 11 kts | 154° |
| 2026-04-18 11:00 | 52.30507 | 4.77132 | -1 ft | 12 kts | 146° |
| 2026-04-18 11:00 | 52.30472 | 4.77241 | -1 ft | 12 kts | 68° |
| 2026-04-18 11:00 | 52.30520 | 4.77367 | -1 ft | 14 kts | 56° |
| 2026-04-18 11:00 | 52.30567 | 4.77497 | -1 ft | 11 kts | 79° |
| 2026-04-18 11:01 | 52.30517 | 4.77588 | -1 ft | 12 kts | 148° |
| 2026-04-18 11:01 | 52.30443 | 4.77642 | -1 ft | 11 kts | 179° |
| 2026-04-18 11:01 | 52.30389 | 4.77570 | -2 ft | 2 kts | 238° |
| 2026-04-18 11:02 | 52.30389 | 4.77569 | -2 ft | 0 kts | 238° |
| 2026-04-18 11:02 | 52.30371 | 4.77522 | -2 ft | 21 kts | 238° |
| 2026-04-18 11:03 | 52.30154 | 4.76958 | -3 ft | 94 kts | 238° |
| 2026-04-18 11:03 | 52.29695 | 4.75764 | -2 ft | 151 kts | 238° |
| 2026-04-18 11:03 | 52.29084 | 4.74178 | 388 ft | 167 kts | 239° |
| 2026-04-18 11:03 | 52.28465 | 4.72577 | 1224 ft | 167 kts | 239° |
| 2026-04-18 11:04 | 52.27828 | 4.70915 | 1773 ft | 182 kts | 240° |
| 2026-04-18 11:04 | 52.27086 | 4.69106 | 2054 ft | 204 kts | 229° |
| 2026-04-18 11:04 | 52.25804 | 4.67919 | 2504 ft | 223 kts | 193° |
| 2026-04-18 11:04 | 52.24255 | 4.68190 | 3369 ft | 232 kts | 159° |
| 2026-04-18 11:05 | 52.23032 | 4.69966 | 4203 ft | 244 kts | 126° |
| 2026-04-18 11:05 | 52.22170 | 4.72369 | 4961 ft | 247 kts | 123° |
| 2026-04-18 11:05 | 52.21345 | 4.74847 | 5644 ft | 250 kts | 122° |
| 2026-04-18 11:05 | 52.20517 | 4.77369 | 6286 ft | 257 kts | 123° |
| 2026-04-18 11:06 | 52.19603 | 4.80030 | 6538 ft | 280 kts | 124° |
| 2026-04-18 11:06 | 52.18707 | 4.82917 | 7050 ft | 292 kts | 110° |
| 2026-04-18 11:06 | 52.18518 | 4.86241 | 7659 ft | 303 kts | 82° |
| 2026-04-18 11:06 | 52.19262 | 4.89466 | 8300 ft | 307 kts | 54° |
| 2026-04-18 11:07 | 52.20751 | 4.91948 | 8947 ft | 309 kts | 38° |
| 2026-04-18 11:07 | 52.22405 | 4.94197 | 9636 ft | 311 kts | 37° |
| 2026-04-18 11:07 | 52.24081 | 4.96449 | 10299 ft | 314 kts | 37° |
| 2026-04-18 11:07 | 52.25824 | 4.98784 | 10510 ft | 334 kts | 38° |
| 2026-04-18 11:08 | 52.27677 | 5.01275 | 10651 ft | 355 kts | 38° |
| 2026-04-18 11:08 | 52.29624 | 5.03916 | 10832 ft | 371 kts | 38° |
| 2026-04-18 11:08 | 52.31638 | 5.06629 | 11314 ft | 377 kts | 35° |
| 2026-04-18 11:08 | 52.33860 | 5.08898 | 11866 ft | 378 kts | 24° |
| 2026-04-18 11:09 | 52.36305 | 5.10470 | 12431 ft | 378 kts | 12° |
| 2026-04-18 11:09 | 52.38850 | 5.11579 | 13006 ft | 380 kts | 11° |
| 2026-04-18 11:09 | 52.41412 | 5.12689 | 13601 ft | 383 kts | 12° |
| 2026-04-18 11:09 | 52.44004 | 5.13817 | 14129 ft | 387 kts | 12° |
| 2026-04-18 11:10 | 52.46616 | 5.14958 | 14636 ft | 390 kts | 12° |
| 2026-04-18 11:10 | 52.49246 | 5.16108 | 15142 ft | 393 kts | 12° |
| 2026-04-18 11:10 | 52.51899 | 5.17274 | 15699 ft | 395 kts | 12° |
| 2026-04-18 11:10 | 52.54565 | 5.18450 | 16237 ft | 398 kts | 12° |
| 2026-04-18 11:11 | 52.57253 | 5.19634 | 16777 ft | 401 kts | 12° |
| 2026-04-18 11:11 | 52.59958 | 5.20833 | 17277 ft | 404 kts | 12° |
| 2026-04-18 11:11 | 52.62681 | 5.22045 | 17787 ft | 407 kts | 12° |
| 2026-04-18 11:11 | 52.65423 | 5.23263 | 18293 ft | 409 kts | 12° |
| 2026-04-18 11:12 | 52.68162 | 5.24632 | 18691 ft | 415 kts | 19° |
| 2026-04-18 11:12 | 52.70745 | 5.26835 | 19074 ft | 422 kts | 31° |
| 2026-04-18 11:12 | 52.73039 | 5.29889 | 19456 ft | 427 kts | 44° |
| 2026-04-18 11:12 | 52.74936 | 5.33685 | 19834 ft | 431 kts | 57° |
| 2026-04-18 11:13 | 52.76330 | 5.38075 | 20224 ft | 434 kts | 70° |
| 2026-04-18 11:13 | 52.77353 | 5.42770 | 20607 ft | 436 kts | 71° |
| 2026-04-18 11:13 | 52.78368 | 5.47511 | 20991 ft | 439 kts | 71° |
| 2026-04-18 11:13 | 52.79391 | 5.52285 | 21375 ft | 442 kts | 71° |
| 2026-04-18 11:14 | 52.80420 | 5.57090 | 21733 ft | 445 kts | 72° |
| 2026-04-18 11:14 | 52.81103 | 5.60290 | 21975 ft | 447 kts | 72° |
| 2026-04-18 11:14 | 52.82494 | 5.66807 | 22475 ft | 451 kts | 72° |
| 2026-04-18 11:14 | 52.83543 | 5.71719 | 22835 ft | 454 kts | 72° |
| 2026-04-18 11:15 | 52.84601 | 5.76673 | 23196 ft | 458 kts | 72° |
| 2026-04-18 11:15 | 52.85664 | 5.81667 | 23551 ft | 461 kts | 72° |
| 2026-04-18 11:15 | 52.86723 | 5.86680 | 23897 ft | 464 kts | 72° |
| 2026-04-18 11:15 | 52.87785 | 5.91735 | 24231 ft | 465 kts | 72° |
| 2026-04-18 11:16 | 52.88846 | 5.96799 | 24556 ft | 467 kts | 73° |
| 2026-04-18 11:16 | 52.89911 | 6.01902 | 24872 ft | 470 kts | 73° |
| 2026-04-18 11:16 | 52.90978 | 6.07023 | 25179 ft | 472 kts | 73° |
| 2026-04-18 11:16 | 52.92055 | 6.12191 | 25420 ft | 475 kts | 73° |
| 2026-04-18 11:17 | 52.93134 | 6.17379 | 25717 ft | 478 kts | 73° |
| 2026-04-18 11:17 | 52.94220 | 6.22605 | 26030 ft | 481 kts | 73° |
| 2026-04-18 11:17 | 52.95310 | 6.27860 | 26338 ft | 483 kts | 73° |
| 2026-04-18 11:17 | 52.96402 | 6.33140 | 26664 ft | 485 kts | 73° |
| 2026-04-18 11:18 | 52.97498 | 6.38450 | 26966 ft | 488 kts | 73° |
| 2026-04-18 11:18 | 52.98597 | 6.43796 | 27253 ft | 490 kts | 74° |
| 2026-04-18 11:18 | 52.99695 | 6.49166 | 27537 ft | 492 kts | 74° |
| 2026-04-18 11:18 | 53.00794 | 6.54564 | 27846 ft | 495 kts | 74° |
| 2026-04-18 11:19 | 53.01897 | 6.59990 | 28169 ft | 497 kts | 74° |
| 2026-04-18 11:19 | 53.03002 | 6.65446 | 28403 ft | 499 kts | 74° |
| 2026-04-18 11:19 | 53.04108 | 6.70914 | 28666 ft | 501 kts | 74° |
| 2026-04-18 11:19 | 53.05219 | 6.76421 | 28917 ft | 503 kts | 74° |
| 2026-04-18 11:20 | 53.06331 | 6.81944 | 29142 ft | 504 kts | 74° |
| 2026-04-18 11:20 | 53.07434 | 6.87418 | 29187 ft | 494 kts | 75° |
| 2026-04-18 11:20 | 53.09591 | 6.98163 | 29178 ft | 487 kts | 75° |
| 2026-04-18 11:21 | 53.11714 | 7.08850 | 29167 ft | 486 kts | 75° |
| 2026-04-18 11:21 | 53.13821 | 7.19537 | 29167 ft | 485 kts | 75° |
| 2026-04-18 11:22 | 53.15578 | 7.28494 | 29165 ft | 485 kts | 75° |
| 2026-04-18 11:22 | 53.17666 | 7.39175 | 29168 ft | 485 kts | 75° |
| 2026-04-18 11:23 | 53.19733 | 7.49797 | 29170 ft | 485 kts | 75° |
| 2026-04-18 11:23 | 53.21802 | 7.60510 | 29162 ft | 485 kts | 75° |
| 2026-04-18 11:24 | 53.23883 | 7.71283 | 29124 ft | 485 kts | 74° |
| 2026-04-18 11:24 | 53.25926 | 7.81922 | 29151 ft | 483 kts | 74° |
| 2026-04-18 11:25 | 53.26942 | 7.87245 | 28885 ft | 478 kts | 75° |
| 2026-04-18 11:25 | 53.27942 | 7.92510 | 28478 ft | 473 kts | 75° |
| 2026-04-18 11:25 | 53.28941 | 7.97797 | 27879 ft | 468 kts | 75° |
| 2026-04-18 11:25 | 53.29905 | 8.02900 | 27324 ft | 464 kts | 75° |
| 2026-04-18 11:26 | 53.30870 | 8.08015 | 26761 ft | 461 kts | 75° |
| 2026-04-18 11:26 | 53.31829 | 8.13117 | 26215 ft | 457 kts | 75° |
| 2026-04-18 11:26 | 53.32785 | 8.18167 | 25695 ft | 453 kts | 73° |
| 2026-04-18 11:26 | 53.33816 | 8.23111 | 25207 ft | 448 kts | 71° |
| 2026-04-18 11:27 | 53.34924 | 8.27962 | 24709 ft | 443 kts | 69° |
| 2026-04-18 11:27 | 53.36065 | 8.32713 | 24252 ft | 438 kts | 69° |
| 2026-04-18 11:27 | 53.37203 | 8.37403 | 23796 ft | 433 kts | 69° |
| 2026-04-18 11:27 | 53.38315 | 8.42058 | 23296 ft | 428 kts | 69° |
| 2026-04-18 11:28 | 53.39392 | 8.46665 | 22862 ft | 421 kts | 70° |
| 2026-04-18 11:28 | 53.40441 | 8.51206 | 22440 ft | 415 kts | 69° |
| 2026-04-18 11:28 | 53.41540 | 8.55642 | 22012 ft | 409 kts | 67° |
| 2026-04-18 11:28 | 53.42697 | 8.59981 | 21598 ft | 405 kts | 66° |
| 2026-04-18 11:29 | 53.43877 | 8.64234 | 21183 ft | 400 kts | 66° |
| 2026-04-18 11:29 | 53.45053 | 8.68429 | 20750 ft | 395 kts | 65° |
| 2026-04-18 11:29 | 53.46211 | 8.72586 | 20328 ft | 391 kts | 66° |
| 2026-04-18 11:29 | 53.47342 | 8.76703 | 19890 ft | 387 kts | 66° |
| 2026-04-18 11:30 | 53.48454 | 8.80800 | 19441 ft | 383 kts | 66° |
| 2026-04-18 11:30 | 53.49539 | 8.84856 | 19015 ft | 379 kts | 66° |
| 2026-04-18 11:30 | 53.50610 | 8.88893 | 18582 ft | 376 kts | 66° |
| 2026-04-18 11:30 | 53.51667 | 8.92882 | 18106 ft | 373 kts | 66° |
| 2026-04-18 11:31 | 53.52756 | 8.96806 | 17652 ft | 368 kts | 61° |
| 2026-04-18 11:31 | 53.54166 | 9.00374 | 17206 ft | 364 kts | 50° |
| 2026-04-18 11:31 | 53.55909 | 9.03414 | 16767 ft | 359 kts | 39° |
| 2026-04-18 11:31 | 53.57903 | 9.05914 | 16337 ft | 355 kts | 33° |
| 2026-04-18 11:32 | 53.59919 | 9.08296 | 15897 ft | 353 kts | 34° |
| 2026-04-18 11:32 | 53.61917 | 9.10676 | 15462 ft | 350 kts | 34° |
| 2026-04-18 11:32 | 53.63892 | 9.13042 | 15025 ft | 348 kts | 34° |
| 2026-04-18 11:32 | 53.65862 | 9.15413 | 14589 ft | 345 kts | 34° |
| 2026-04-18 11:33 | 53.67809 | 9.17756 | 14166 ft | 343 kts | 34° |
| 2026-04-18 11:33 | 53.69745 | 9.20086 | 13697 ft | 341 kts | 34° |
| 2026-04-18 11:33 | 53.71663 | 9.22396 | 13248 ft | 338 kts | 34° |
| 2026-04-18 11:33 | 53.73566 | 9.24698 | 12839 ft | 335 kts | 34° |
| 2026-04-18 11:34 | 53.75459 | 9.26986 | 12412 ft | 333 kts | 34° |
| 2026-04-18 11:34 | 53.77335 | 9.29250 | 11993 ft | 330 kts | 34° |
| 2026-04-18 11:34 | 53.79118 | 9.31671 | 11582 ft | 329 kts | 44° |
| 2026-04-18 11:34 | 53.80565 | 9.34655 | 11151 ft | 327 kts | 57° |
| 2026-04-18 11:35 | 53.81589 | 9.38031 | 10914 ft | 335 kts | 69° |
| 2026-04-18 11:35 | 53.82223 | 9.41866 | 10689 ft | 329 kts | 79° |
| 2026-04-18 11:35 | 53.82666 | 9.45580 | 10558 ft | 316 kts | 79° |
| 2026-04-18 11:35 | 53.83104 | 9.49166 | 10385 ft | 306 kts | 79° |
| 2026-04-18 11:36 | 53.83537 | 9.52688 | 10283 ft | 307 kts | 79° |
| 2026-04-18 11:36 | 53.83970 | 9.56234 | 10148 ft | 307 kts | 79° |
| 2026-04-18 11:36 | 53.84399 | 9.59770 | 9966 ft | 306 kts | 79° |
| 2026-04-18 11:36 | 53.84826 | 9.63292 | 9766 ft | 305 kts | 79° |
| 2026-04-18 11:37 | 53.85247 | 9.66806 | 9596 ft | 304 kts | 79° |
| 2026-04-18 11:37 | 53.85663 | 9.70319 | 9417 ft | 303 kts | 79° |
| 2026-04-18 11:37 | 53.86075 | 9.73809 | 9290 ft | 302 kts | 79° |
| 2026-04-18 11:37 | 53.86489 | 9.77294 | 9158 ft | 301 kts | 79° |
| 2026-04-18 11:38 | 53.86680 | 9.80802 | 9019 ft | 299 kts | 96° |
| 2026-04-18 11:38 | 53.86446 | 9.84292 | 8862 ft | 298 kts | 99° |
| 2026-04-18 11:38 | 53.86196 | 9.87773 | 8701 ft | 297 kts | 99° |
| 2026-04-18 11:38 | 53.85950 | 9.91240 | 8552 ft | 296 kts | 98° |
| 2026-04-18 11:39 | 53.85706 | 9.94703 | 8395 ft | 296 kts | 99° |
| 2026-04-18 11:39 | 53.85460 | 9.98159 | 8242 ft | 295 kts | 99° |
| 2026-04-18 11:39 | 53.85213 | 10.01601 | 8097 ft | 294 kts | 99° |
| 2026-04-18 11:39 | 53.84966 | 10.05040 | 7930 ft | 294 kts | 99° |
| 2026-04-18 11:40 | 53.84719 | 10.08427 | 7780 ft | 293 kts | 99° |
| 2026-04-18 11:40 | 53.84468 | 10.11853 | 7620 ft | 292 kts | 99° |
| 2026-04-18 11:40 | 53.84224 | 10.15264 | 7470 ft | 292 kts | 97° |
| 2026-04-18 11:40 | 53.84366 | 10.18693 | 7319 ft | 293 kts | 75° |
| 2026-04-18 11:41 | 53.85215 | 10.21810 | 7158 ft | 293 kts | 53° |
| 2026-04-18 11:41 | 53.86417 | 10.24592 | 7028 ft | 293 kts | 62° |
| 2026-04-18 11:41 | 53.86891 | 10.27883 | 6902 ft | 289 kts | 96° |
| 2026-04-18 11:41 | 53.86260 | 10.31016 | 6779 ft | 280 kts | 130° |
| 2026-04-18 11:42 | 53.84817 | 10.33130 | 6458 ft | 272 kts | 153° |
| 2026-04-18 11:42 | 53.83118 | 10.34442 | 5964 ft | 268 kts | 171° |
| 2026-04-18 11:42 | 53.81268 | 10.34345 | 5346 ft | 267 kts | 200° |
| 2026-04-18 11:42 | 53.79708 | 10.32780 | 4998 ft | 260 kts | 226° |
| 2026-04-18 11:43 | 53.78540 | 10.30488 | 4649 ft | 255 kts | 231° |
| 2026-04-18 11:43 | 53.77428 | 10.28173 | 4304 ft | 252 kts | 231° |
| 2026-04-18 11:43 | 53.76337 | 10.25925 | 3957 ft | 239 kts | 231° |
| 2026-04-18 11:43 | 53.75316 | 10.23835 | 3667 ft | 222 kts | 231° |
| 2026-04-18 11:44 | 53.74369 | 10.21901 | 3375 ft | 206 kts | 231° |
| 2026-04-18 11:44 | 53.73484 | 10.20092 | 3130 ft | 196 kts | 231° |
| 2026-04-18 11:44 | 53.72632 | 10.18349 | 2834 ft | 188 kts | 232° |
| 2026-04-18 11:44 | 53.71815 | 10.16681 | 2595 ft | 181 kts | 231° |
| 2026-04-18 11:45 | 53.71023 | 10.15066 | 2349 ft | 176 kts | 232° |
| 2026-04-18 11:45 | 53.70250 | 10.13490 | 2118 ft | 172 kts | 232° |
| 2026-04-18 11:45 | 53.69490 | 10.11939 | 1888 ft | 170 kts | 231° |
| 2026-04-18 11:45 | 53.68742 | 10.10417 | 1660 ft | 166 kts | 232° |
| 2026-04-18 11:46 | 53.68014 | 10.08936 | 1437 ft | 162 kts | 232° |
| 2026-04-18 11:46 | 53.67308 | 10.07499 | 1227 ft | 157 kts | 232° |
| 2026-04-18 11:46 | 53.66610 | 10.06080 | 1006 ft | 155 kts | 232° |
| 2026-04-18 11:46 | 53.65922 | 10.04682 | 801 ft | 155 kts | 231° |
| 2026-04-18 11:47 | 53.65238 | 10.03295 | 594 ft | 154 kts | 232° |
| 2026-04-18 11:47 | 53.64557 | 10.01907 | 389 ft | 154 kts | 231° |
| 2026-04-18 11:47 | 53.63889 | 10.00540 | 196 ft | 147 kts | 230° |
| 2026-04-18 11:47 | 53.63243 | 9.99239 | 51 ft | 138 kts | 230° |
| 2026-04-18 11:48 | 53.62712 | 9.98163 | 42 ft | 96 kts | 230° |
| 2026-04-18 11:48 | 53.62403 | 9.97541 | 40 ft | 34 kts | 229° |
| 2026-04-18 11:48 | 53.62302 | 9.97370 | 40 ft | 18 kts | 202° |
| 2026-04-18 11:48 | 53.62202 | 9.97426 | 44 ft | 14 kts | 128° |
| 2026-04-18 11:49 | 53.62182 | 9.97574 | 47 ft | 13 kts | 72° |
| 2026-04-18 11:49 | 53.62239 | 9.97704 | 47 ft | 14 kts | 51° |
| 2026-04-18 11:49 | 53.62304 | 9.97838 | 47 ft | 15 kts | 50° |
| 2026-04-18 11:49 | 53.62376 | 9.97981 | 47 ft | 16 kts | 50° |
| 2026-04-18 11:50 | 53.62458 | 9.98126 | 47 ft | 18 kts | 42° |
| 2026-04-18 11:50 | 53.62550 | 9.98268 | 47 ft | 19 kts | 49° |
| 2026-04-18 11:50 | 53.62635 | 9.98440 | 47 ft | 20 kts | 50° |
| 2026-04-18 11:50 | 53.62724 | 9.98620 | 47 ft | 21 kts | 50° |
| 2026-04-18 11:51 | 53.62817 | 9.98810 | 47 ft | 21 kts | 51° |
| 2026-04-18 11:51 | 53.62915 | 9.99007 | 47 ft | 22 kts | 50° |
| 2026-04-18 11:51 | 53.63016 | 9.99212 | 47 ft | 23 kts | 50° |
| 2026-04-18 11:51 | 53.63073 | 9.99339 | 47 ft | 3 kts | 56° |
| 2026-04-18 11:52 | 53.63073 | 9.99340 | 47 ft | 0 kts | 56° |
| 2026-04-18 11:52 | 53.63080 | 9.99356 | 47 ft | 4 kts | 56° |
| 2026-04-18 11:52 | 53.63109 | 9.99428 | 46 ft | 11 kts | 54° |
| 2026-04-18 11:52 | 53.63163 | 9.99548 | 46 ft | 14 kts | 50° |
| 2026-04-18 11:53 | 53.63214 | 9.99652 | 48 ft | 7 kts | 52° |
| 2026-04-18 11:53 | 53.63226 | 9.99722 | 48 ft | 6 kts | 108° |
| 2026-04-18 11:53 | 53.63193 | 9.99781 | 48 ft | 8 kts | 142° |
| 2026-04-18 11:53 | 53.63142 | 9.99831 | 48 ft | 9 kts | 152° |
| 2026-04-18 11:54 | 53.63082 | 9.99884 | 46 ft | 11 kts | 153° |
| 2026-04-18 11:54 | 53.63018 | 9.99939 | 47 ft | 6 kts | 152° |
| 2026-04-18 11:54 | 53.63001 | 9.99954 | 48 ft | 0 kts | 153° |
| 2026-04-18 11:55 | 53.62996 | 9.99958 | 46 ft | 3 kts | 153° |
| 2026-04-18 11:55 | 53.62964 | 9.99986 | 48 ft | 6 kts | 148° |
| 2026-04-18 11:55 | 53.62946 | 10.00057 | 48 ft | 7 kts | 89° |
| 2026-04-18 11:56 | 53.62954 | 10.00147 | 48 ft | 8 kts | 99° |
| 2026-04-18 11:56 | 53.62935 | 10.00247 | 47 ft | 10 kts | 108° |
| 2026-04-18 11:56 | 53.62928 | 10.00285 | 48 ft | 1 kts | 108° |
| 2026-04-18 11:56 | 53.62927 | 10.00286 | 48 ft | 0 kts | 108° |